sensor_id;sensor_type;location;lat;lon;timestamp;pressure;altitude;pressure_sealevel;temperature;humidity
41967;BME280;27656;53.068;8.818;2024-02-26T00:00:23;100339.59;;;2.73;100.00
41967;BME280;27656;53.068;8.818;2024-02-26T00:02:50;100341.25;;;2.74;100.00
41967;BME280;27656;53.068;8.818;2024-02-26T00:05:16;100334.84;;;2.79;100.00
41967;BME280;27656;53.068;8.818;2024-02-26T00:07:43;100335.31;;;2.84;100.00
41967;BME280;27656;53.068;8.818;2024-02-26T00:10:10;100330.94;;;2.84;100.00
41967;BME280;27656;53.068;8.818;2024-02-26T00:12:36;100326.69;;;2.83;100.00
41967;BME280;27656;53.068;8.818;2024-02-26T00:15:06;100335.56;;;2.81;100.00
41967;BME280;27656;53.068;8.818;2024-02-26T00:17:33;100327.97;;;2.78;100.00
41967;BME280;27656;53.068;8.818;2024-02-26T00:20:01;100325.97;;;2.70;100.00
41967;BME280;27656;53.068;8.818;2024-02-26T00:22:28;100329.88;;;2.64;100.00
41967;BME280;27656;53.068;8.818;2024-02-26T00:24:55;100324.66;;;2.64;100.00
41967;BME280;27656;53.068;8.818;2024-02-26T00:27:21;100328.22;;;2.74;100.00
41967;BME280;27656;53.068;8.818;2024-02-26T00:29:48;100329.03;;;2.75;100.00
41967;BME280;27656;53.068;8.818;2024-02-26T00:32:14;100326.56;;;2.73;100.00
41967;BME280;27656;53.068;8.818;2024-02-26T00:34:41;100318.84;;;2.72;100.00
41967;BME280;27656;53.068;8.818;2024-02-26T00:37:07;100322.19;;;2.85;100.00
41967;BME280;27656;53.068;8.818;2024-02-26T00:39:34;100320.03;;;2.90;100.00
41967;BME280;27656;53.068;8.818;2024-02-26T00:42:00;100317.44;;;2.90;100.00
41967;BME280;27656;53.068;8.818;2024-02-26T00:44:27;100326.06;;;2.91;100.00
41967;BME280;27656;53.068;8.818;2024-02-26T00:46:54;100326.53;;;2.85;100.00
41967;BME280;27656;53.068;8.818;2024-02-26T00:49:20;100325.50;;;2.87;100.00
41967;BME280;27656;53.068;8.818;2024-02-26T00:51:47;100320.97;;;2.89;100.00
41967;BME280;27656;53.068;8.818;2024-02-26T00:54:14;100325.72;;;2.84;100.00
41967;BME280;27656;53.068;8.818;2024-02-26T00:56:40;100323.13;;;2.84;100.00
41967;BME280;27656;53.068;8.818;2024-02-26T00:59:07;100313.41;;;2.86;100.00
41967;BME280;27656;53.068;8.818;2024-02-26T01:01:33;100315.19;;;2.86;100.00
41967;BME280;27656;53.068;8.818;2024-02-26T01:04:00;100312.81;;;2.83;100.00
41967;BME280;27656;53.068;8.818;2024-02-26T01:06:26;100312.94;;;2.81;100.00
41967;BME280;27656;53.068;8.818;2024-02-26T01:08:53;100315.53;;;2.70;100.00
41967;BME280;27656;53.068;8.818;2024-02-26T01:11:19;100309.28;;;2.61;100.00
41967;BME280;27656;53.068;8.818;2024-02-26T01:13:46;100309.84;;;2.65;100.00
41967;BME280;27656;53.068;8.818;2024-02-26T01:16:12;100311.41;;;2.67;100.00
41967;BME280;27656;53.068;8.818;2024-02-26T01:18:39;100316.59;;;2.67;100.00
41967;BME280;27656;53.068;8.818;2024-02-26T01:21:05;100316.59;;;2.56;100.00
41967;BME280;27656;53.068;8.818;2024-02-26T01:23:35;100325.16;;;2.47;100.00
41967;BME280;27656;53.068;8.818;2024-02-26T01:26:01;100319.31;;;2.43;100.00
41967;BME280;27656;53.068;8.818;2024-02-26T01:28:29;100315.75;;;2.44;100.00
41967;BME280;27656;53.068;8.818;2024-02-26T01:30:55;100313.88;;;2.58;100.00
41967;BME280;27656;53.068;8.818;2024-02-26T01:33:22;100302.50;;;2.59;100.00
41967;BME280;27656;53.068;8.818;2024-02-26T01:35:48;100311.28;;;2.58;100.00
41967;BME280;27656;53.068;8.818;2024-02-26T01:38:15;100308.66;;;2.58;100.00
41967;BME280;27656;53.068;8.818;2024-02-26T01:40:42;100316.13;;;2.51;100.00
41967;BME280;27656;53.068;8.818;2024-02-26T01:43:08;100319.34;;;2.54;100.00
41967;BME280;27656;53.068;8.818;2024-02-26T01:45:35;100312.09;;;2.58;100.00
41967;BME280;27656;53.068;8.818;2024-02-26T01:48:01;100314.72;;;2.58;100.00
41967;BME280;27656;53.068;8.818;2024-02-26T01:50:28;100314.13;;;2.54;100.00
41967;BME280;27656;53.068;8.818;2024-02-26T01:52:55;100314.84;;;2.57;100.00
41967;BME280;27656;53.068;8.818;2024-02-26T01:55:24;100316.84;;;2.53;100.00
41967;BME280;27656;53.068;8.818;2024-02-26T01:57:51;100322.16;;;2.51;100.00
41967;BME280;27656;53.068;8.818;2024-02-26T02:00:20;100314.47;;;2.50;100.00
41967;BME280;27656;53.068;8.818;2024-02-26T02:02:48;100318.00;;;2.49;100.00
41967;BME280;27656;53.068;8.818;2024-02-26T02:05:15;100320.97;;;2.44;100.00
41967;BME280;27656;53.068;8.818;2024-02-26T02:07:43;100323.94;;;2.40;100.00
41967;BME280;27656;53.068;8.818;2024-02-26T02:10:10;100327.47;;;2.39;100.00
41967;BME280;27656;53.068;8.818;2024-02-26T02:12:37;100328.44;;;2.38;100.00
41967;BME280;27656;53.068;8.818;2024-02-26T02:15:06;100335.66;;;2.34;100.00
41967;BME280;27656;53.068;8.818;2024-02-26T02:17:34;100331.41;;;2.33;100.00
41967;BME280;27656;53.068;8.818;2024-02-26T02:20:00;100329.00;;;2.30;100.00
41967;BME280;27656;53.068;8.818;2024-02-26T02:22:27;100330.53;;;2.21;100.00
41967;BME280;27656;53.068;8.818;2024-02-26T02:24:54;100339.41;;;2.19;100.00
41967;BME280;27656;53.068;8.818;2024-02-26T02:27:21;100340.69;;;2.13;100.00
41967;BME280;27656;53.068;8.818;2024-02-26T02:29:48;100347.69;;;2.12;100.00
41967;BME280;27656;53.068;8.818;2024-02-26T02:32:15;100336.91;;;2.17;100.00
41967;BME280;27656;53.068;8.818;2024-02-26T02:34:43;100344.38;;;2.22;100.00
41967;BME280;27656;53.068;8.818;2024-02-26T02:37:10;100338.94;;;2.25;100.00
41967;BME280;27656;53.068;8.818;2024-02-26T02:39:36;100339.56;;;2.28;100.00
41967;BME280;27656;53.068;8.818;2024-02-26T02:42:03;100342.03;;;2.30;100.00
41967;BME280;27656;53.068;8.818;2024-02-26T02:44:30;100343.56;;;2.32;100.00
41967;BME280;27656;53.068;8.818;2024-02-26T02:46:56;100341.81;;;2.33;100.00
41967;BME280;27656;53.068;8.818;2024-02-26T02:49:22;100342.75;;;2.32;100.00
41967;BME280;27656;53.068;8.818;2024-02-26T02:51:50;100347.13;;;2.31;100.00
41967;BME280;27656;53.068;8.818;2024-02-26T02:54:17;100339.66;;;2.27;100.00
41967;BME280;27656;53.068;8.818;2024-02-26T02:56:43;100333.63;;;2.26;100.00
41967;BME280;27656;53.068;8.818;2024-02-26T02:59:10;100339.66;;;2.27;100.00
41967;BME280;27656;53.068;8.818;2024-02-26T03:01:36;100342.84;;;2.19;100.00
41967;BME280;27656;53.068;8.818;2024-02-26T03:04:03;100352.06;;;2.12;100.00
41967;BME280;27656;53.068;8.818;2024-02-26T03:06:29;100351.91;;;2.02;100.00
41967;BME280;27656;53.068;8.818;2024-02-26T03:08:56;100359.44;;;1.94;100.00
41967;BME280;27656;53.068;8.818;2024-02-26T03:11:23;100358.97;;;1.89;100.00
41967;BME280;27656;53.068;8.818;2024-02-26T03:13:49;100363.25;;;2.01;100.00
41967;BME280;27656;53.068;8.818;2024-02-26T03:16:17;100360.22;;;2.07;100.00
41967;BME280;27656;53.068;8.818;2024-02-26T03:18:43;100364.69;;;2.05;100.00
41967;BME280;27656;53.068;8.818;2024-02-26T03:21:10;100372.84;;;2.01;100.00
41967;BME280;27656;53.068;8.818;2024-02-26T03:23:37;100379.22;;;1.97;100.00
41967;BME280;27656;53.068;8.818;2024-02-26T03:26:04;100383.72;;;1.95;100.00
41967;BME280;27656;53.068;8.818;2024-02-26T03:28:31;100381.00;;;1.96;100.00
41967;BME280;27656;53.068;8.818;2024-02-26T03:31:00;100389.13;;;1.91;100.00
41967;BME280;27656;53.068;8.818;2024-02-26T03:33:27;100393.25;;;1.83;100.00
41967;BME280;27656;53.068;8.818;2024-02-26T03:35:54;100391.88;;;1.90;100.00
41967;BME280;27656;53.068;8.818;2024-02-26T03:38:21;100402.63;;;1.85;100.00
41967;BME280;27656;53.068;8.818;2024-02-26T03:40:47;100418.78;;;1.78;100.00
41967;BME280;27656;53.068;8.818;2024-02-26T03:43:14;100421.50;;;1.76;100.00
41967;BME280;27656;53.068;8.818;2024-02-26T03:45:40;100414.41;;;1.78;100.00
41967;BME280;27656;53.068;8.818;2024-02-26T03:48:07;100415.13;;;1.80;100.00
41967;BME280;27656;53.068;8.818;2024-02-26T03:50:33;100416.88;;;1.80;100.00
41967;BME280;27656;53.068;8.818;2024-02-26T03:53:01;100420.31;;;1.80;100.00
41967;BME280;27656;53.068;8.818;2024-02-26T03:55:27;100418.94;;;1.87;100.00
41967;BME280;27656;53.068;8.818;2024-02-26T03:57:54;100414.25;;;1.93;100.00
41967;BME280;27656;53.068;8.818;2024-02-26T04:00:20;100413.94;;;1.84;100.00
41967;BME280;27656;53.068;8.818;2024-02-26T04:02:49;100417.72;;;1.80;100.00
41967;BME280;27656;53.068;8.818;2024-02-26T04:05:16;100410.84;;;1.79;100.00
41967;BME280;27656;53.068;8.818;2024-02-26T04:07:42;100417.44;;;1.72;100.00
41967;BME280;27656;53.068;8.818;2024-02-26T04:10:10;100424.53;;;1.70;100.00
41967;BME280;27656;53.068;8.818;2024-02-26T04:12:40;100428.91;;;1.69;100.00
41967;BME280;27656;53.068;8.818;2024-02-26T04:15:08;100435.75;;;1.70;100.00
41967;BME280;27656;53.068;8.818;2024-02-26T04:17:36;100432.97;;;1.74;100.00
41967;BME280;27656;53.068;8.818;2024-02-26T04:20:04;100436.63;;;1.71;100.00
41967;BME280;27656;53.068;8.818;2024-02-26T04:22:32;100438.38;;;1.70;100.00
41967;BME280;27656;53.068;8.818;2024-02-26T04:24:59;100437.44;;;1.72;100.00
41967;BME280;27656;53.068;8.818;2024-02-26T04:27:26;100441.19;;;1.67;100.00
41967;BME280;27656;53.068;8.818;2024-02-26T04:29:52;100446.50;;;1.66;100.00
41967;BME280;27656;53.068;8.818;2024-02-26T04:32:19;100447.22;;;1.68;100.00
41967;BME280;27656;53.068;8.818;2024-02-26T04:34:45;100444.63;;;1.68;100.00
41967;BME280;27656;53.068;8.818;2024-02-26T04:37:12;100447.22;;;1.68;100.00
41967;BME280;27656;53.068;8.818;2024-02-26T04:39:38;100449.22;;;1.64;100.00
41967;BME280;27656;53.068;8.818;2024-02-26T04:42:05;100457.13;;;1.63;100.00
41967;BME280;27656;53.068;8.818;2024-02-26T04:44:32;100452.66;;;1.65;100.00
41967;BME280;27656;53.068;8.818;2024-02-26T04:46:59;100457.63;;;1.68;100.00
41967;BME280;27656;53.068;8.818;2024-02-26T04:49:25;100464.94;;;1.63;100.00
41967;BME280;27656;53.068;8.818;2024-02-26T04:51:52;100458.50;;;1.68;100.00
41967;BME280;27656;53.068;8.818;2024-02-26T04:54:18;100461.28;;;1.65;100.00
41967;BME280;27656;53.068;8.818;2024-02-26T04:56:45;100457.03;;;1.64;100.00
41967;BME280;27656;53.068;8.818;2024-02-26T04:59:11;100462.34;;;1.63;100.00
41967;BME280;27656;53.068;8.818;2024-02-26T05:01:39;100475.97;;;1.66;100.00
41967;BME280;27656;53.068;8.818;2024-02-26T05:04:06;100474.28;;;1.65;100.00
41967;BME280;27656;53.068;8.818;2024-02-26T05:06:32;100475.25;;;1.64;100.00
41967;BME280;27656;53.068;8.818;2024-02-26T05:08:59;100479.50;;;1.65;100.00
41967;BME280;27656;53.068;8.818;2024-02-26T05:11:25;100484.59;;;1.67;100.00
41967;BME280;27656;53.068;8.818;2024-02-26T05:13:52;100488.84;;;1.68;100.00
41967;BME280;27656;53.068;8.818;2024-02-26T05:16:18;100491.38;;;1.69;100.00
41967;BME280;27656;53.068;8.818;2024-02-26T05:18:47;100494.78;;;1.70;100.00
41967;BME280;27656;53.068;8.818;2024-02-26T05:21:14;100495.63;;;1.70;100.00
41967;BME280;27656;53.068;8.818;2024-02-26T05:23:40;100497.16;;;1.73;100.00
41967;BME280;27656;53.068;8.818;2024-02-26T05:26:09;100494.78;;;1.70;100.00
41967;BME280;27656;53.068;8.818;2024-02-26T05:28:36;100497.16;;;1.73;100.00
41967;BME280;27656;53.068;8.818;2024-02-26T05:31:03;100503.31;;;1.72;100.00
41967;BME280;27656;53.068;8.818;2024-02-26T05:33:30;100504.47;;;1.68;100.00
41967;BME280;27656;53.068;8.818;2024-02-26T05:35:57;100508.03;;;1.67;100.00
41967;BME280;27656;53.068;8.818;2024-02-26T05:38:30;100505.44;;;1.67;100.00
41967;BME280;27656;53.068;8.818;2024-02-26T05:40:58;100503.75;;;1.66;100.00
41967;BME280;27656;53.068;8.818;2024-02-26T05:43:28;100496.56;;;1.69;100.00
41967;BME280;27656;53.068;8.818;2024-02-26T05:45:54;100495.94;;;1.66;100.00
41967;BME280;27656;53.068;8.818;2024-02-26T05:48:21;100498.66;;;1.64;100.00
41967;BME280;27656;53.068;8.818;2024-02-26T05:50:48;100502.50;;;1.59;100.00
41967;BME280;27656;53.068;8.818;2024-02-26T05:53:14;100499.81;;;1.60;100.00
41967;BME280;27656;53.068;8.818;2024-02-26T05:55:41;100505.34;;;1.56;100.00
41967;BME280;27656;53.068;8.818;2024-02-26T05:58:07;100515.13;;;1.52;100.00
41967;BME280;27656;53.068;8.818;2024-02-26T06:00:34;100507.34;;;1.52;100.00
41967;BME280;27656;53.068;8.818;2024-02-26T06:03:00;100505.56;;;1.53;100.00
41967;BME280;27656;53.068;8.818;2024-02-26T06:05:28;100509.94;;;1.52;100.00
41967;BME280;27656;53.068;8.818;2024-02-26T06:07:55;100515.13;;;1.52;100.00
41967;BME280;27656;53.068;8.818;2024-02-26T06:10:21;100516.19;;;1.50;100.00
41967;BME280;27656;53.068;8.818;2024-02-26T06:12:48;100520.94;;;1.56;100.00
41967;BME280;27656;53.068;8.818;2024-02-26T06:15:15;100515.00;;;1.54;100.00
41967;BME280;27656;53.068;8.818;2024-02-26T06:17:41;100514.81;;;1.57;100.00
41967;BME280;27656;53.068;8.818;2024-02-26T06:20:08;100529.25;;;1.61;100.00
41967;BME280;27656;53.068;8.818;2024-02-26T06:22:40;100521.69;;;1.58;100.00
41967;BME280;27656;53.068;8.818;2024-02-26T06:25:07;100526.97;;;1.56;100.00
41967;BME280;27656;53.068;8.818;2024-02-26T06:27:34;100527.69;;;1.58;100.00
41967;BME280;27656;53.068;8.818;2024-02-26T06:30:01;100536.97;;;1.62;100.00
41967;BME280;27656;53.068;8.818;2024-02-26T06:32:28;100545.09;;;1.58;100.00
41967;BME280;27656;53.068;8.818;2024-02-26T06:34:55;100539.66;;;1.61;100.00
41967;BME280;27656;53.068;8.818;2024-02-26T06:37:23;100543.63;;;1.66;100.00
41967;BME280;27656;53.068;8.818;2024-02-26T06:39:49;100547.88;;;1.67;100.00
41967;BME280;27656;53.068;8.818;2024-02-26T06:42:18;100557.47;;;1.67;100.00
41967;BME280;27656;53.068;8.818;2024-02-26T06:44:45;100556.19;;;1.73;100.00
41967;BME280;27656;53.068;8.818;2024-02-26T06:47:11;100562.13;;;1.75;100.00
41967;BME280;27656;53.068;8.818;2024-02-26T06:49:38;100569.03;;;1.76;100.00
41967;BME280;27656;53.068;8.818;2024-02-26T06:52:05;100577.75;;;1.75;100.00
41967;BME280;27656;53.068;8.818;2024-02-26T06:54:32;100581.91;;;1.77;100.00
41967;BME280;27656;53.068;8.818;2024-02-26T06:56:59;100580.69;;;1.83;100.00
41967;BME280;27656;53.068;8.818;2024-02-26T06:59:26;100577.03;;;1.85;100.00
41967;BME280;27656;53.068;8.818;2024-02-26T07:01:53;100579.81;;;1.82;100.00
41967;BME280;27656;53.068;8.818;2024-02-26T07:04:20;100581.38;;;1.85;100.00
41967;BME280;27656;53.068;8.818;2024-02-26T07:06:47;100580.56;;;1.84;100.00
41967;BME280;27656;53.068;8.818;2024-02-26T07:09:13;100592.66;;;1.85;100.00
41967;BME280;27656;53.068;8.818;2024-02-26T07:11:40;100598.91;;;1.83;100.00
41967;BME280;27656;53.068;8.818;2024-02-26T07:14:10;100600.84;;;1.92;100.00
41967;BME280;27656;53.068;8.818;2024-02-26T07:16:37;100603.44;;;1.92;100.00
41967;BME280;27656;53.068;8.818;2024-02-26T07:19:03;100598.03;;;1.95;100.00
41967;BME280;27656;53.068;8.818;2024-02-26T07:21:30;100603.03;;;1.98;100.00
41967;BME280;27656;53.068;8.818;2024-02-26T07:23:57;100606.34;;;2.00;100.00
41967;BME280;27656;53.068;8.818;2024-02-26T07:26:24;100609.78;;;2.01;100.00
41967;BME280;27656;53.068;8.818;2024-02-26T07:28:52;100615.22;;;1.98;100.00
41967;BME280;27656;53.068;8.818;2024-02-26T07:31:19;100614.78;;;2.04;100.00
41967;BME280;27656;53.068;8.818;2024-02-26T07:33:45;100612.72;;;2.09;100.00
41967;BME280;27656;53.068;8.818;2024-02-26T07:36:12;100616.13;;;2.09;100.00
41967;BME280;27656;53.068;8.818;2024-02-26T07:38:39;100612.34;;;2.13;100.00
41967;BME280;27656;53.068;8.818;2024-02-26T07:41:09;100616.53;;;2.16;100.00
41967;BME280;27656;53.068;8.818;2024-02-26T07:43:36;100618.50;;;2.12;100.00
41967;BME280;27656;53.068;8.818;2024-02-26T07:46:02;100614.34;;;2.10;100.00
41967;BME280;27656;53.068;8.818;2024-02-26T07:48:29;100619.47;;;2.11;100.00
41967;BME280;27656;53.068;8.818;2024-02-26T07:50:56;100621.75;;;2.16;100.00
41967;BME280;27656;53.068;8.818;2024-02-26T07:53:23;100617.44;;;2.28;100.00
41967;BME280;27656;53.068;8.818;2024-02-26T07:55:49;100627.88;;;2.28;100.00
41967;BME280;27656;53.068;8.818;2024-02-26T07:58:15;100625.97;;;2.30;100.00
41967;BME280;27656;53.068;8.818;2024-02-26T08:00:42;100629.94;;;2.36;100.00
41967;BME280;27656;53.068;8.818;2024-02-26T08:03:08;100630.69;;;2.49;100.00
41967;BME280;27656;53.068;8.818;2024-02-26T08:05:35;100632.25;;;2.51;100.00
41967;BME280;27656;53.068;8.818;2024-02-26T08:08:02;100634.84;;;2.51;100.00
41967;BME280;27656;53.068;8.818;2024-02-26T08:10:29;100627.16;;;2.50;100.00
41967;BME280;27656;53.068;8.818;2024-02-26T08:12:58;100640.06;;;2.51;100.00
41967;BME280;27656;53.068;8.818;2024-02-26T08:15:32;100633.94;;;2.52;100.00
41967;BME280;27656;53.068;8.818;2024-02-26T08:18:01;100644.75;;;2.59;100.00
41967;BME280;27656;53.068;8.818;2024-02-26T08:20:31;100650.78;;;2.60;100.00
41967;BME280;27656;53.068;8.818;2024-02-26T08:22:58;100640.13;;;2.63;100.00
41967;BME280;27656;53.068;8.818;2024-02-26T08:25:24;100644.78;;;2.70;100.00
41967;BME280;27656;53.068;8.818;2024-02-26T08:27:51;100661.78;;;2.76;100.00
41967;BME280;27656;53.068;8.818;2024-02-26T08:30:18;100652.50;;;2.72;100.00
41967;BME280;27656;53.068;8.818;2024-02-26T08:32:45;100659.19;;;2.76;100.00
41967;BME280;27656;53.068;8.818;2024-02-26T08:35:17;100659.44;;;2.84;100.00
41967;BME280;27656;53.068;8.818;2024-02-26T08:37:47;100660.50;;;2.82;100.00
41967;BME280;27656;53.068;8.818;2024-02-26T08:40:14;100655.34;;;2.93;100.00
41967;BME280;27656;53.068;8.818;2024-02-26T08:42:41;100657.63;;;2.97;100.00
41967;BME280;27656;53.068;8.818;2024-02-26T08:45:08;100661.06;;;2.98;100.00
41967;BME280;27656;53.068;8.818;2024-02-26T08:47:35;100667.38;;;3.07;100.00
41967;BME280;27656;53.068;8.818;2024-02-26T08:50:02;100664.53;;;3.10;100.00
41967;BME280;27656;53.068;8.818;2024-02-26T08:52:28;100661.59;;;3.14;100.00
41967;BME280;27656;53.068;8.818;2024-02-26T08:54:55;100670.53;;;3.23;100.00
41967;BME280;27656;53.068;8.818;2024-02-26T08:57:22;100668.38;;;3.17;100.00
41967;BME280;27656;53.068;8.818;2024-02-26T08:59:49;100665.53;;;3.20;100.00
41967;BME280;27656;53.068;8.818;2024-02-26T09:02:15;100672.91;;;3.26;100.00
41967;BME280;27656;53.068;8.818;2024-02-26T09:04:42;100669.84;;;3.32;100.00
41967;BME280;27656;53.068;8.818;2024-02-26T09:07:08;100675.66;;;3.36;100.00
41967;BME280;27656;53.068;8.818;2024-02-26T09:09:35;100669.63;;;3.35;100.00
41967;BME280;27656;53.068;8.818;2024-02-26T09:12:02;100680.66;;;3.39;100.00
41967;BME280;27656;53.068;8.818;2024-02-26T09:14:29;100680.19;;;3.45;100.00
41967;BME280;27656;53.068;8.818;2024-02-26T09:16:56;100676.09;;;3.54;100.00
41967;BME280;27656;53.068;8.818;2024-02-26T09:19:24;100689.81;;;3.56;100.00
41967;BME280;27656;53.068;8.818;2024-02-26T09:21:52;100688.22;;;3.66;100.00
41967;BME280;27656;53.068;8.818;2024-02-26T09:24:21;100711.56;;;3.68;100.00
41967;BME280;27656;53.068;8.818;2024-02-26T09:26:47;100690.84;;;3.77;100.00
41967;BME280;27656;53.068;8.818;2024-02-26T09:29:14;100698.06;;;3.74;100.00
41967;BME280;27656;53.068;8.818;2024-02-26T09:31:44;100692.13;;;3.72;100.00
41967;BME280;27656;53.068;8.818;2024-02-26T09:34:13;100701.50;;;3.74;100.00
41967;BME280;27656;53.068;8.818;2024-02-26T09:36:40;100702.84;;;3.80;100.00
41967;BME280;27656;53.068;8.818;2024-02-26T09:39:07;100706.63;;;3.76;100.00
41967;BME280;27656;53.068;8.818;2024-02-26T09:41:37;100714.81;;;3.82;100.00
41967;BME280;27656;53.068;8.818;2024-02-26T09:44:05;100702.97;;;3.90;100.00
41967;BME280;27656;53.068;8.818;2024-02-26T09:46:31;100702.72;;;3.93;100.00
41967;BME280;27656;53.068;8.818;2024-02-26T09:48:58;100706.31;;;3.92;100.00
41967;BME280;27656;53.068;8.818;2024-02-26T09:51:25;100706.28;;;4.03;100.00
41967;BME280;27656;53.068;8.818;2024-02-26T09:53:52;100710.47;;;4.17;100.00
41967;BME280;27656;53.068;8.818;2024-02-26T09:56:20;100717.25;;;4.42;100.00
41967;BME280;27656;53.068;8.818;2024-02-26T09:58:47;100716.53;;;4.40;100.00
41967;BME280;27656;53.068;8.818;2024-02-26T10:01:20;100721.03;;;4.38;100.00
41967;BME280;27656;53.068;8.818;2024-02-26T10:03:56;100722.84;;;4.49;100.00
41967;BME280;27656;53.068;8.818;2024-02-26T10:06:26;100723.75;;;4.70;100.00
41967;BME280;27656;53.068;8.818;2024-02-26T10:08:53;100738.84;;;4.78;100.00
41967;BME280;27656;53.068;8.818;2024-02-26T10:11:21;100731.81;;;4.67;100.00
41967;BME280;27656;53.068;8.818;2024-02-26T10:13:48;100731.00;;;4.78;100.00
41967;BME280;27656;53.068;8.818;2024-02-26T10:16:16;100735.06;;;5.03;100.00
41967;BME280;27656;53.068;8.818;2024-02-26T10:21:24;100733.09;;;5.27;100.00
41967;BME280;27656;53.068;8.818;2024-02-26T10:23:51;100728.97;;;5.25;100.00
41967;BME280;27656;53.068;8.818;2024-02-26T10:26:19;100742.47;;;5.41;100.00
41967;BME280;27656;53.068;8.818;2024-02-26T10:28:46;100732.28;;;5.48;100.00
41967;BME280;27656;53.068;8.818;2024-02-26T10:31:17;100733.44;;;5.34;100.00
41967;BME280;27656;53.068;8.818;2024-02-26T10:33:43;100738.47;;;5.26;100.00
41967;BME280;27656;53.068;8.818;2024-02-26T10:36:11;100742.69;;;5.38;100.00
41967;BME280;27656;53.068;8.818;2024-02-26T10:38:38;100734.53;;;5.31;100.00
41967;BME280;27656;53.068;8.818;2024-02-26T10:41:13;100736.66;;;5.59;100.00
41967;BME280;27656;53.068;8.818;2024-02-26T10:43:47;100747.25;;;5.57;100.00
41967;BME280;27656;53.068;8.818;2024-02-26T10:46:14;100745.78;;;5.64;100.00
41967;BME280;27656;53.068;8.818;2024-02-26T10:48:40;100748.94;;;5.58;100.00
41967;BME280;27656;53.068;8.818;2024-02-26T10:51:16;100760.16;;;5.49;100.00
41967;BME280;27656;53.068;8.818;2024-02-26T10:53:45;100746.53;;;5.55;100.00
41967;BME280;27656;53.068;8.818;2024-02-26T10:56:15;100750.53;;;5.70;100.00
41967;BME280;27656;53.068;8.818;2024-02-26T10:58:42;100757.25;;;5.84;100.00
41967;BME280;27656;53.068;8.818;2024-02-26T11:01:12;100758.19;;;5.83;100.00
41967;BME280;27656;53.068;8.818;2024-02-26T11:03:40;100761.84;;;5.92;100.00
41967;BME280;27656;53.068;8.818;2024-02-26T11:06:08;100766.91;;;6.05;100.00
41967;BME280;27656;53.068;8.818;2024-02-26T11:08:35;100767.28;;;6.00;100.00
41967;BME280;27656;53.068;8.818;2024-02-26T11:11:02;100773.28;;;6.12;100.00
41967;BME280;27656;53.068;8.818;2024-02-26T11:13:30;100769.78;;;6.23;100.00
41967;BME280;27656;53.068;8.818;2024-02-26T11:16:00;100769.72;;;6.34;100.00
41967;BME280;27656;53.068;8.818;2024-02-26T11:18:27;100769.34;;;6.18;100.00
41967;BME280;27656;53.068;8.818;2024-02-26T11:20:55;100767.59;;;6.28;100.00
41967;BME280;27656;53.068;8.818;2024-02-26T11:23:23;100772.75;;;6.39;100.00
41967;BME280;27656;53.068;8.818;2024-02-26T11:25:55;100775.69;;;6.46;100.00
41967;BME280;27656;53.068;8.818;2024-02-26T11:28:27;100770.34;;;6.57;100.00
41967;BME280;27656;53.068;8.818;2024-02-26T11:30:54;100774.28;;;6.42;100.00
41967;BME280;27656;53.068;8.818;2024-02-26T11:33:21;100778.75;;;6.51;100.00
41967;BME280;27656;53.068;8.818;2024-02-26T11:35:48;100774.91;;;6.55;100.00
41967;BME280;27656;53.068;8.818;2024-02-26T11:38:20;100784.53;;;6.54;100.00
41967;BME280;27656;53.068;8.818;2024-02-26T11:40:50;100782.78;;;6.55;100.00
41967;BME280;27656;53.068;8.818;2024-02-26T11:43:16;100781.00;;;6.65;100.00
41967;BME280;27656;53.068;8.818;2024-02-26T11:48:14;100777.19;;;6.39;100.00
41967;BME280;27656;53.068;8.818;2024-02-26T11:50:45;100774.72;;;6.47;100.00
41967;BME280;27656;53.068;8.818;2024-02-26T11:53:22;100780.81;;;6.57;100.00
41967;BME280;27656;53.068;8.818;2024-02-26T11:56:12;100775.56;;;6.26;100.00
41967;BME280;27656;53.068;8.818;2024-02-26T11:58:40;100787.72;;;6.48;100.00
41967;BME280;27656;53.068;8.818;2024-02-26T12:01:35;100791.59;;;6.54;100.00
41967;BME280;27656;53.068;8.818;2024-02-26T12:04:04;100792.75;;;6.71;100.00
41967;BME280;27656;53.068;8.818;2024-02-26T12:06:40;100789.72;;;6.66;100.00
41967;BME280;27656;53.068;8.818;2024-02-26T12:09:07;100788.47;;;6.60;100.00
41967;BME280;27656;53.068;8.818;2024-02-26T12:11:42;100797.69;;;6.33;100.00
41967;BME280;27656;53.068;8.818;2024-02-26T12:14:09;100796.69;;;6.46;100.00
41967;BME280;27656;53.068;8.818;2024-02-26T12:16:37;100796.38;;;6.70;100.00
41967;BME280;27656;53.068;8.818;2024-02-26T12:19:09;100811.16;;;6.80;100.00
41967;BME280;27656;53.068;8.818;2024-02-26T12:21:37;100810.75;;;6.85;100.00
41967;BME280;27656;53.068;8.818;2024-02-26T12:24:11;100804.25;;;6.79;100.00
41967;BME280;27656;53.068;8.818;2024-02-26T12:26:39;100808.13;;;6.85;100.00
41967;BME280;27656;53.068;8.818;2024-02-26T12:29:06;100814.13;;;6.97;100.00
41967;BME280;27656;53.068;8.818;2024-02-26T12:31:33;100814.00;;;7.08;100.00
41967;BME280;27656;53.068;8.818;2024-02-26T12:34:00;100806.84;;;7.10;100.00
41967;BME280;27656;53.068;8.818;2024-02-26T12:36:28;100808.09;;;7.16;100.00
41967;BME280;27656;53.068;8.818;2024-02-26T12:38:54;100820.25;;;7.07;100.00
41967;BME280;27656;53.068;8.818;2024-02-26T12:41:22;100818.88;;;7.13;100.00
41967;BME280;27656;53.068;8.818;2024-02-26T12:43:48;100826.94;;;6.90;100.00
41967;BME280;27656;53.068;8.818;2024-02-26T12:46:16;100825.19;;;7.00;100.00
41967;BME280;27656;53.068;8.818;2024-02-26T12:48:43;100843.88;;;7.07;100.00
41967;BME280;27656;53.068;8.818;2024-02-26T12:51:12;100839.59;;;7.16;100.00
41967;BME280;27656;53.068;8.818;2024-02-26T12:53:40;100837.63;;;6.98;100.00
41967;BME280;27656;53.068;8.818;2024-02-26T12:56:08;100825.63;;;7.06;100.00